Sand Key, FL current weather conditions

sailwx.info

Wind from 050 at 18 knots gusting 20

Air temperature 20.3° C
Dewpoint 13.3° C

Last reported at 2015-Jan-31 17:50 UTC.
Time now 2015-Jan-31 19:15 UTC

Location: N 24°28' W 081°53'.
View on Google Maps.

See reports from other nearby stations

  
Tides and Currents Weather Stations Pressure Air Temp Water Temp Dewpoint Dewpoint Depression Visibility Wind Speed Wind Dir Waves Ship Positions
date/time (UTC)wind fromknots sea level pressurealtimeterstation pressurevisibilityair tempwater tempwave heightnotes
2015-Jan-31 17:50 050 18 gusting 20 20.3
2015-Jan-31 16:50 050 16 gusting 19 20.1
2015-Jan-31 15:50 050 15 gusting 17 19.6
2015-Jan-31 14:50 060 19 gusting 22 19.2
2015-Jan-31 13:50 050 19 gusting 22 18.9
2015-Jan-31 12:50 050 20 gusting 23 18.5
2015-Jan-31 11:50 040 19 gusting 20 18.4
2015-Jan-31 10:50 040 18 gusting 20 18.7
2015-Jan-31 09:50 030 20 gusting 22 19.0
2015-Jan-31 08:50 030 18 gusting 20 19.1
2015-Jan-31 07:50 030 18 gusting 20 19.4
2015-Jan-31 06:50 020 16 gusting 18 19.6
2015-Jan-31 05:50 020 14 gusting 16 19.5
2015-Jan-31 04:50 020 16 gusting 17 19.5
2015-Jan-31 03:50 010 15 gusting 17 19.5
2015-Jan-31 02:50 360 15 gusting 18 19.5
2015-Jan-31 01:50 360 16 gusting 19 19.3
2015-Jan-31 00:50 350 13 gusting 15 19.3
2015-Jan-30 22:50 360 16 gusting 18 19.7
2015-Jan-30 21:50 360 15 gusting 17 19.8
2015-Jan-30 20:50 360 14 gusting 17 19.7
2015-Jan-30 19:50 010 14 gusting 16 19.5
2015-Jan-30 18:50 010 15 gusting 17 19.3
2015-Jan-30 17:50 010 15 gusting 17 19.4
2015-Jan-30 16:50 020 13 gusting 14 19.5
2015-Jan-30 15:50 030 12 gusting 13 19.5
2015-Jan-30 14:50 030 15 gusting 17 19.4
2015-Jan-30 13:50 020 17 gusting 19 19.3
2015-Jan-30 12:50 010 16 gusting 19 19.5
2015-Jan-30 11:50 030 17 gusting 19 19.5
2015-Jan-30 10:50 020 17 gusting 19 19.5
2015-Jan-30 09:50 030 16 gusting 18 19.3
2015-Jan-30 08:50 030 15 gusting 16 19.3
2015-Jan-30 07:50 030 16 gusting 19 19.3
2015-Jan-30 06:50 030 15 gusting 17 19.2
2015-Jan-30 05:50 040 14 gusting 16 19.4
2015-Jan-30 04:50 030 17 gusting 19 19.8
2015-Jan-30 03:50 040 20 gusting 22 19.8
2015-Jan-30 02:50 050 18 gusting 20 19.9
2015-Jan-30 01:50 050 19 gusting 22 19.9
2015-Jan-30 00:50 060 18 gusting 20 19.9
2015-Jan-29 22:50 060 18 gusting 20 20.5
2015-Jan-29 21:50 060 19 gusting 24 20.6
2015-Jan-29 20:50 070 20 gusting 24 20.3
2015-Jan-29 19:50 070 20 gusting 24 20.3